Bairoil, Wyoming
Current Conditions -  °F | °C
As of 9:53 AM on Sunday 23 Nov 2014 (Local Time) from KRWL Reporting Station
Overcast Overcast  
Wind Chill: 16°   Ceiling: 4700
Heat Index: 26°   Visibility: 10mi
Dew Point: 20°   Wind: 10mph
Humidity: 78%   Direction: 300°WNW
Pressure: 29.89"   Gusts: 23mph
Location:  42.24°N, 107.56°W
Report Text: KRWL 231653Z AUTO 30009G20KT 10SM BKN047 OVC065 M03/M07 A2989 RMK AO2 SLP137 T10331067
Loading
Personal Weather Stations






























Interactive Weather Map New forecast layout! Learn more

10-Day Weather Forecast

Advertisements
Track Severe Weather on mobile